»·PEaware :: N16RD KCRQ-KTSP

N16RD :: KCRQ-KTSP

FLIGHT INFORMATION

Flight Status: Arrived
Operator: Privately registered:
United States
More flights under this callsign
Pilot: Brett B. (12105)
Aircraft: CESSNA 152 AEROBAT
(C152)
More flights by this aircraft type
Origin: KCRQ McClellan-Palomar
United States
Destination: KTSP Tehachapi Mun
United States
More flights between these airports :: More routes between these airports
Route: KCRQ KTSP
File this flight plan on PilotEdge
Remarks:
Altitude:
(Current/Filed)
8,500ft
Speed:
(Current/Filed)
100kts
Departed: 12-Oct-17 01:52 PM
Arrived: 12-Oct-17 02:57 PM
Distance/Time
Traveled:
133nm/1:05
Distance/Time
To Go:
Arrived

Flight Plot

Page will automatically refresh every two minutes.

Flight plan parsing failed; only flown route is shown


Map Options




Map Legend


Flown Route
Filed Route
Departure Airport
Arrival Airport
Navaid (VOR, NDB)
Fix

Horizontal Profiles

Position Reports

Time Latitude Longitude Heading Altitude Ground
Speed
12-Oct-17 13:17 33.129343 -117.281174 168 303ft 0kts
12-Oct-17 13:18 33.129343 -117.281174 168 303ft 0kts
12-Oct-17 13:19 33.129343 -117.281174 168 303ft 0kts
12-Oct-17 13:20 33.129343 -117.281174 168 303ft 0kts
12-Oct-17 13:21 33.129343 -117.281174 168 303ft 0kts
12-Oct-17 13:22 33.129342 -117.281174 168 303ft 0kts
12-Oct-17 13:23 33.129342 -117.281174 168 303ft 0kts
12-Oct-17 13:24 33.129342 -117.281174 168 303ft 0kts
12-Oct-17 13:25 33.129341 -117.281174 168 303ft 0kts
12-Oct-17 13:26 33.129340 -117.281173 168 303ft 0kts
12-Oct-17 13:27 33.129338 -117.281173 168 303ft 0kts
12-Oct-17 13:28 33.129337 -117.281172 168 303ft 0kts
12-Oct-17 13:29 33.129335 -117.281172 168 303ft 0kts
12-Oct-17 13:30 33.129333 -117.281172 168 303ft 0kts
12-Oct-17 13:31 33.129332 -117.281171 169 303ft 0kts
12-Oct-17 13:32 33.129330 -117.281171 169 303ft 0kts
12-Oct-17 13:33 33.129328 -117.281171 169 303ft 0kts
12-Oct-17 13:34 33.129327 -117.281170 169 303ft 0kts
12-Oct-17 13:35 33.129325 -117.281170 169 303ft 0kts
12-Oct-17 13:36 33.129324 -117.281169 169 303ft 0kts
12-Oct-17 13:37 33.129322 -117.281169 169 303ft 0kts
12-Oct-17 13:38 33.129320 -117.281169 169 303ft 0kts
12-Oct-17 13:39 33.129318 -117.281168 169 303ft 0kts
12-Oct-17 13:40 33.129317 -117.281168 169 303ft 0kts
12-Oct-17 13:41 33.129315 -117.281168 169 303ft 0kts
12-Oct-17 13:42 33.129314 -117.281167 169 303ft 0kts
12-Oct-17 13:43 33.129312 -117.281167 169 303ft 0kts
12-Oct-17 13:44 33.129311 -117.281167 169 303ft 0kts
12-Oct-17 13:45 33.129310 -117.281166 169 303ft 0kts
12-Oct-17 13:46 33.129309 -117.281166 169 303ft 0kts
12-Oct-17 13:47 33.129307 -117.281166 169 303ft 0kts
12-Oct-17 13:48 33.129306 -117.281165 169 303ft 0kts
12-Oct-17 13:49 33.129304 -117.281165 169 303ft 0kts
12-Oct-17 13:50 33.129303 -117.281165 169 303ft 0kts
12-Oct-17 13:51 33.129232 -117.281041 93 303ft 0kts
12-Oct-17 13:52 33.129418 -117.279382 82 303ft 20kts
12-Oct-17 13:53 33.129844 -117.275257 79 303ft 4kts
12-Oct-17 13:54 33.130211 -117.272526 154 303ft 0kts
12-Oct-17 13:55 33.129826 -117.272378 167 303ft 12kts
12-Oct-17 13:56 33.127990 -117.282396 257 447ft 85kts
12-Oct-17 13:57 33.121378 -117.309668 249 1380ft 118kts
12-Oct-17 13:59 33.126833 -117.345532 327 1858ft 121kts
12-Oct-17 14:00 33.150622 -117.369655 332 2809ft 107kts
12-Oct-17 14:01 33.181216 -117.390485 333 2910ft 142kts
12-Oct-17 14:02 33.212612 -117.410587 338 3630ft 119kts
12-Oct-17 14:03 33.242862 -117.421765 353 4407ft 110kts
12-Oct-17 14:04 33.272071 -117.427920 357 5168ft 102kts
12-Oct-17 14:05 33.299180 -117.432557 358 5908ft 92kts
12-Oct-17 14:06 33.322729 -117.435293 357 6572ft 75kts
12-Oct-17 14:07 33.344193 -117.437099 355 6520ft 91kts
12-Oct-17 14:08 33.377539 -117.444557 349 6892ft 124kts
12-Oct-17 14:09 33.409865 -117.456975 329 7559ft 121kts
12-Oct-17 14:10 33.433302 -117.483724 299 8165ft 114kts
12-Oct-17 14:11 33.455803 -117.511498 326 8598ft 124kts
12-Oct-17 14:12 33.488176 -117.520833 344 9120ft 119kts
12-Oct-17 14:13 33.521264 -117.526388 354 9506ft 122kts
12-Oct-17 14:14 33.555069 -117.528057 339 9862ft 119kts
12-Oct-17 14:15 33.587349 -117.534177 347 10281ft 114kts
12-Oct-17 14:16 33.619621 -117.537085 348 10502ft 125kts
12-Oct-17 14:17 33.656185 -117.541097 348 10489ft 134kts
12-Oct-17 14:18 33.692713 -117.547123 338 10486ft 128kts
12-Oct-17 14:19 33.727139 -117.557984 338 10487ft 127kts
12-Oct-17 14:20 33.762245 -117.570826 316 10485ft 133kts
12-Oct-17 14:21 33.788575 -117.602032 308 10481ft 134kts
12-Oct-17 14:22 33.815166 -117.634546 308 10481ft 137kts
12-Oct-17 14:23 33.848080 -117.658301 338 10483ft 145kts
12-Oct-17 14:24 33.888615 -117.672692 332 10479ft 148kts
12-Oct-17 14:25 33.925225 -117.693290 328 10488ft 143kts
12-Oct-17 14:26 33.961001 -117.713693 328 10508ft 142kts
12-Oct-17 14:27 33.996848 -117.734147 328 10505ft 142kts
12-Oct-17 14:28 34.032848 -117.754698 328 10501ft 143kts
12-Oct-17 14:29 34.063525 -117.783076 313 10497ft 139kts
12-Oct-17 14:30 34.093033 -117.813449 313 10498ft 138kts
12-Oct-17 14:31 34.124621 -117.846676 313 9819ft 159kts
12-Oct-17 14:32 34.158006 -117.882834 313 9024ft 162kts
12-Oct-17 14:33 34.190975 -117.919135 313 8534ft 152kts
12-Oct-17 14:34 34.221449 -117.952489 313 8537ft 146kts
12-Oct-17 14:35 34.249359 -117.987534 308 8539ft 144kts
12-Oct-17 14:36 34.272871 -118.026412 298 8536ft 143kts
12-Oct-17 14:37 34.293941 -118.066002 298 8543ft 140kts
12-Oct-17 14:38 34.314849 -118.105747 298 8543ft 138kts
12-Oct-17 14:39 34.334185 -118.145284 298 8543ft 134kts
12-Oct-17 14:40 34.351711 -118.184896 298 8542ft 133kts
12-Oct-17 14:41 34.376454 -118.218204 321 8538ft 134kts
12-Oct-17 14:42 34.411164 -118.236257 342 8405ft 145kts
12-Oct-17 14:43 34.453468 -118.244248 354 7623ft 158kts
12-Oct-17 14:44 34.500797 -118.251485 352 6829ft 176kts
12-Oct-17 14:45 34.547608 -118.255854 353 6490ft 158kts
12-Oct-17 14:46 34.590386 -118.261151 348 6493ft 152kts
12-Oct-17 14:47 34.633728 -118.269086 348 6231ft 155kts
12-Oct-17 14:48 34.673838 -118.276036 348 6495ft 147kts
12-Oct-17 14:49 34.716375 -118.283418 348 6113ft 166kts
12-Oct-17 14:50 34.763016 -118.292086 348 5324ft 170kts
12-Oct-17 14:51 34.809694 -118.300514 358 4592ft 163kts
12-Oct-17 14:52 34.851712 -118.296240 4 4498ft 149kts
12-Oct-17 14:53 34.893713 -118.292241 3 4509ft 152kts
12-Oct-17 14:54 34.935971 -118.295180 343 4511ft 153kts
12-Oct-17 14:55 34.971921 -118.318509 281 4507ft 149kts
12-Oct-17 14:56 34.985602 -118.362629 301 5210ft 119kts
12-Oct-17 14:57 35.010161 -118.374049 7 6120ft 103kts
12-Oct-17 14:58 35.046394 -118.372470 1 6302ft 137kts
12-Oct-17 14:59 35.087138 -118.378051 354 5703ft 156kts
12-Oct-17 15:00 35.117871 -118.406045 295 4830ft 118kts
12-Oct-17 15:01 35.129938 -118.430078 300 4110ft 57kts
12-Oct-17 15:02 35.135090 -118.439418 307 4004ft 6kts
12-Oct-17 15:03 35.135202 -118.440697 45 4004ft 0kts
12-Oct-17 15:04 35.135202 -118.440697 45 4004ft 0kts
12-Oct-17 15:05 35.135202 -118.440697 45 4004ft 0kts
12-Oct-17 15:05 35.135202 -118.440697 45 4004ft 0kts
12-Oct-17 15:06 35.135202 -118.440697 45 4004ft 0kts
12-Oct-17 15:08 35.135202 -118.440697 45 4004ft 0kts
12-Oct-17 15:08 35.135202 -118.440697 45 4004ft 0kts
12-Oct-17 15:09 35.135202 -118.440697 45 4004ft 0kts
12-Oct-17 15:10 35.135202 -118.440697 45 4004ft 0kts
12-Oct-17 15:11 35.135202 -118.440697 45 4004ft 0kts
12-Oct-17 15:13 35.135202 -118.440697 45 4004ft 0kts
12-Oct-17 15:13 35.135202 -118.440697 45 4004ft 0kts
12-Oct-17 15:14 35.135202 -118.440697 45 4004ft 0kts
12-Oct-17 15:15 35.135202 -118.440697 45 4004ft 0kts

Navigation Log

Ident Type
Flight plan parsing failed, navigation log unavailable